sensor_id;sensor_type;location;lat;lon;timestamp;temperature;humidity
47482;DHT22;33219;47.410;9.730;2023-03-16T00:02:22;1.90;99.90
47482;DHT22;33219;47.410;9.730;2023-03-16T00:04:50;1.90;99.90
47482;DHT22;33219;47.410;9.730;2023-03-16T00:07:18;1.80;99.90
47482;DHT22;33219;47.410;9.730;2023-03-16T00:09:46;1.70;99.90
47482;DHT22;33219;47.410;9.730;2023-03-16T00:12:15;1.80;99.90
47482;DHT22;33219;47.410;9.730;2023-03-16T00:14:46;1.70;99.90
47482;DHT22;33219;47.410;9.730;2023-03-16T00:17:16;1.70;99.90
47482;DHT22;33219;47.410;9.730;2023-03-16T00:19:51;1.70;99.90
47482;DHT22;33219;47.410;9.730;2023-03-16T00:22:28;1.60;99.90
47482;DHT22;33219;47.410;9.730;2023-03-16T00:24:56;1.60;99.90
47482;DHT22;33219;47.410;9.730;2023-03-16T00:27:25;1.60;99.90
47482;DHT22;33219;47.410;9.730;2023-03-16T00:29:53;1.50;99.90
47482;DHT22;33219;47.410;9.730;2023-03-16T00:32:26;1.50;99.90
47482;DHT22;33219;47.410;9.730;2023-03-16T00:34:54;1.40;99.90
47482;DHT22;33219;47.410;9.730;2023-03-16T00:37:23;1.30;99.90
47482;DHT22;33219;47.410;9.730;2023-03-16T00:39:52;1.20;99.90
47482;DHT22;33219;47.410;9.730;2023-03-16T00:42:23;1.20;99.90
47482;DHT22;33219;47.410;9.730;2023-03-16T00:44:56;1.20;99.90
47482;DHT22;33219;47.410;9.730;2023-03-16T00:47:26;1.00;99.90
47482;DHT22;33219;47.410;9.730;2023-03-16T00:49:54;1.00;99.90
47482;DHT22;33219;47.410;9.730;2023-03-16T00:52:22;1.00;99.90
47482;DHT22;33219;47.410;9.730;2023-03-16T00:54:50;1.00;99.90
47482;DHT22;33219;47.410;9.730;2023-03-16T00:57:18;1.00;99.90
47482;DHT22;33219;47.410;9.730;2023-03-16T00:59:47;1.00;99.90
47482;DHT22;33219;47.410;9.730;2023-03-16T01:02:16;0.80;99.90
47482;DHT22;33219;47.410;9.730;2023-03-16T01:04:45;0.90;99.90
47482;DHT22;33219;47.410;9.730;2023-03-16T01:07:13;0.90;99.90
47482;DHT22;33219;47.410;9.730;2023-03-16T01:09:42;1.00;99.90
47482;DHT22;33219;47.410;9.730;2023-03-16T01:12:12;1.10;99.90
47482;DHT22;33219;47.410;9.730;2023-03-16T01:14:41;1.20;99.90
47482;DHT22;33219;47.410;9.730;2023-03-16T01:17:11;1.20;99.90
47482;DHT22;33219;47.410;9.730;2023-03-16T01:19:40;1.30;99.90
47482;DHT22;33219;47.410;9.730;2023-03-16T01:22:08;1.20;99.90
47482;DHT22;33219;47.410;9.730;2023-03-16T01:24:38;1.20;99.90
47482;DHT22;33219;47.410;9.730;2023-03-16T01:27:07;1.20;99.90
47482;DHT22;33219;47.410;9.730;2023-03-16T01:29:35;1.20;99.90
47482;DHT22;33219;47.410;9.730;2023-03-16T01:32:03;1.10;99.90
47482;DHT22;33219;47.410;9.730;2023-03-16T01:34:32;1.10;99.90
47482;DHT22;33219;47.410;9.730;2023-03-16T01:37:00;1.10;99.90
47482;DHT22;33219;47.410;9.730;2023-03-16T01:39:28;1.10;99.90
47482;DHT22;33219;47.410;9.730;2023-03-16T01:41:56;1.10;99.90
47482;DHT22;33219;47.410;9.730;2023-03-16T01:44:26;1.10;99.90
47482;DHT22;33219;47.410;9.730;2023-03-16T01:46:58;1.10;99.90
47482;DHT22;33219;47.410;9.730;2023-03-16T01:49:32;1.10;99.90
47482;DHT22;33219;47.410;9.730;2023-03-16T01:52:05;1.10;99.90
47482;DHT22;33219;47.410;9.730;2023-03-16T01:54:41;1.10;99.90
47482;DHT22;33219;47.410;9.730;2023-03-16T01:57:11;1.00;99.90
47482;DHT22;33219;47.410;9.730;2023-03-16T02:02:41;1.10;99.90
47482;DHT22;33219;47.410;9.730;2023-03-16T02:05:18;1.00;99.90
47482;DHT22;33219;47.410;9.730;2023-03-16T02:07:50;1.00;99.90
47482;DHT22;33219;47.410;9.730;2023-03-16T02:10:20;0.90;99.90
47482;DHT22;33219;47.410;9.730;2023-03-16T02:12:49;1.00;99.90
47482;DHT22;33219;47.410;9.730;2023-03-16T02:15:17;0.90;99.90
47482;DHT22;33219;47.410;9.730;2023-03-16T02:17:46;0.90;99.90
47482;DHT22;33219;47.410;9.730;2023-03-16T02:23:08;0.90;99.90
47482;DHT22;33219;47.410;9.730;2023-03-16T02:30:55;0.90;99.90
47482;DHT22;33219;47.410;9.730;2023-03-16T02:33:23;0.90;99.90
47482;DHT22;33219;47.410;9.730;2023-03-16T02:35:52;0.90;99.90
47482;DHT22;33219;47.410;9.730;2023-03-16T02:38:19;0.90;99.90
47482;DHT22;33219;47.410;9.730;2023-03-16T02:40:57;0.90;99.90
47482;DHT22;33219;47.410;9.730;2023-03-16T02:43:24;0.90;99.90
47482;DHT22;33219;47.410;9.730;2023-03-16T02:45:58;0.80;99.90
47482;DHT22;33219;47.410;9.730;2023-03-16T02:48:30;0.90;99.90
47482;DHT22;33219;47.410;9.730;2023-03-16T02:50:56;0.80;99.90
47482;DHT22;33219;47.410;9.730;2023-03-16T02:53:24;0.80;99.90
47482;DHT22;33219;47.410;9.730;2023-03-16T02:55:51;0.70;99.90
47482;DHT22;33219;47.410;9.730;2023-03-16T02:58:20;0.70;99.90
47482;DHT22;33219;47.410;9.730;2023-03-16T03:00:52;0.60;99.90
47482;DHT22;33219;47.410;9.730;2023-03-16T03:03:17;0.70;99.90
47482;DHT22;33219;47.410;9.730;2023-03-16T03:05:45;0.60;99.90
47482;DHT22;33219;47.410;9.730;2023-03-16T03:08:13;0.60;99.90
47482;DHT22;33219;47.410;9.730;2023-03-16T03:10:41;0.60;99.90
47482;DHT22;33219;47.410;9.730;2023-03-16T03:13:08;0.70;99.90
47482;DHT22;33219;47.410;9.730;2023-03-16T03:15:36;0.70;99.90
47482;DHT22;33219;47.410;9.730;2023-03-16T03:18:03;0.70;99.90
47482;DHT22;33219;47.410;9.730;2023-03-16T03:20:33;0.60;99.90
47482;DHT22;33219;47.410;9.730;2023-03-16T03:23:01;0.60;99.90
47482;DHT22;33219;47.410;9.730;2023-03-16T03:25:28;0.60;99.90
47482;DHT22;33219;47.410;9.730;2023-03-16T03:27:56;0.60;99.90
47482;DHT22;33219;47.410;9.730;2023-03-16T03:30:25;0.70;99.90
47482;DHT22;33219;47.410;9.730;2023-03-16T03:32:53;0.70;99.90
47482;DHT22;33219;47.410;9.730;2023-03-16T03:35:21;0.70;99.90
47482;DHT22;33219;47.410;9.730;2023-03-16T03:37:49;0.70;99.90
47482;DHT22;33219;47.410;9.730;2023-03-16T03:40:18;0.60;99.90
47482;DHT22;33219;47.410;9.730;2023-03-16T03:42:46;0.60;99.90
47482;DHT22;33219;47.410;9.730;2023-03-16T03:45:14;0.50;99.90
47482;DHT22;33219;47.410;9.730;2023-03-16T03:47:43;0.40;99.90
47482;DHT22;33219;47.410;9.730;2023-03-16T03:50:12;0.40;99.90
47482;DHT22;33219;47.410;9.730;2023-03-16T03:52:40;0.30;99.90
47482;DHT22;33219;47.410;9.730;2023-03-16T03:55:08;0.20;99.90
47482;DHT22;33219;47.410;9.730;2023-03-16T03:57:36;0.10;99.90
47482;DHT22;33219;47.410;9.730;2023-03-16T04:00:07;0.00;99.90
47482;DHT22;33219;47.410;9.730;2023-03-16T04:02:40;-0.10;99.90
47482;DHT22;33219;47.410;9.730;2023-03-16T04:05:08;0.00;99.90
47482;DHT22;33219;47.410;9.730;2023-03-16T04:07:36;0.00;99.90
47482;DHT22;33219;47.410;9.730;2023-03-16T04:10:05;0.00;99.90
47482;DHT22;33219;47.410;9.730;2023-03-16T04:12:33;0.00;99.90
47482;DHT22;33219;47.410;9.730;2023-03-16T04:15:01;0.00;99.90
47482;DHT22;33219;47.410;9.730;2023-03-16T04:17:29;0.10;99.90
47482;DHT22;33219;47.410;9.730;2023-03-16T04:19:56;0.10;99.90
47482;DHT22;33219;47.410;9.730;2023-03-16T04:22:24;0.00;99.90
47482;DHT22;33219;47.410;9.730;2023-03-16T04:24:51;0.00;99.90
47482;DHT22;33219;47.410;9.730;2023-03-16T04:27:20;0.00;99.90
47482;DHT22;33219;47.410;9.730;2023-03-16T04:29:48;0.00;99.90
47482;DHT22;33219;47.410;9.730;2023-03-16T04:32:21;0.00;99.90
47482;DHT22;33219;47.410;9.730;2023-03-16T04:34:45;0.00;99.90
47482;DHT22;33219;47.410;9.730;2023-03-16T04:37:13;0.00;99.90
47482;DHT22;33219;47.410;9.730;2023-03-16T04:39:41;-0.10;99.90
47482;DHT22;33219;47.410;9.730;2023-03-16T04:42:10;-0.20;99.90
47482;DHT22;33219;47.410;9.730;2023-03-16T04:44:37;-0.30;99.90
47482;DHT22;33219;47.410;9.730;2023-03-16T04:47:07;-0.30;99.90
47482;DHT22;33219;47.410;9.730;2023-03-16T04:49:34;-0.30;99.90
47482;DHT22;33219;47.410;9.730;2023-03-16T04:52:03;-0.30;99.90
47482;DHT22;33219;47.410;9.730;2023-03-16T04:54:31;-0.30;99.90
47482;DHT22;33219;47.410;9.730;2023-03-16T04:56:59;-0.30;99.90
47482;DHT22;33219;47.410;9.730;2023-03-16T04:59:29;-0.20;99.90
47482;DHT22;33219;47.410;9.730;2023-03-16T05:01:57;-0.10;99.90
47482;DHT22;33219;47.410;9.730;2023-03-16T05:04:24;0.00;99.90
47482;DHT22;33219;47.410;9.730;2023-03-16T05:06:52;0.10;99.90
47482;DHT22;33219;47.410;9.730;2023-03-16T05:09:20;0.10;99.90
47482;DHT22;33219;47.410;9.730;2023-03-16T05:11:47;0.10;99.90
47482;DHT22;33219;47.410;9.730;2023-03-16T05:14:15;0.10;99.90
47482;DHT22;33219;47.410;9.730;2023-03-16T05:16:42;0.00;99.90
47482;DHT22;33219;47.410;9.730;2023-03-16T05:19:10;0.10;99.90
47482;DHT22;33219;47.410;9.730;2023-03-16T05:21:38;0.10;99.90
47482;DHT22;33219;47.410;9.730;2023-03-16T05:24:06;0.10;99.90
47482;DHT22;33219;47.410;9.730;2023-03-16T05:26:34;0.10;99.90
47482;DHT22;33219;47.410;9.730;2023-03-16T05:29:01;0.20;99.90
47482;DHT22;33219;47.410;9.730;2023-03-16T05:31:29;0.30;99.90
47482;DHT22;33219;47.410;9.730;2023-03-16T05:33:58;0.40;99.90
47482;DHT22;33219;47.410;9.730;2023-03-16T05:36:27;0.40;99.90
47482;DHT22;33219;47.410;9.730;2023-03-16T05:38:55;0.40;99.90
47482;DHT22;33219;47.410;9.730;2023-03-16T05:41:23;0.50;99.90
47482;DHT22;33219;47.410;9.730;2023-03-16T05:43:51;0.50;99.90
47482;DHT22;33219;47.410;9.730;2023-03-16T05:46:19;0.40;99.90
47482;DHT22;33219;47.410;9.730;2023-03-16T05:48:46;0.30;99.90
47482;DHT22;33219;47.410;9.730;2023-03-16T05:51:14;0.40;99.90
47482;DHT22;33219;47.410;9.730;2023-03-16T05:53:42;0.40;99.90
47482;DHT22;33219;47.410;9.730;2023-03-16T05:56:11;0.40;99.90
47482;DHT22;33219;47.410;9.730;2023-03-16T05:58:39;0.40;99.90
47482;DHT22;33219;47.410;9.730;2023-03-16T06:01:07;0.50;99.90
47482;DHT22;33219;47.410;9.730;2023-03-16T06:03:36;0.50;99.90
47482;DHT22;33219;47.410;9.730;2023-03-16T06:06:04;0.50;99.90
47482;DHT22;33219;47.410;9.730;2023-03-16T06:08:32;0.60;99.90
47482;DHT22;33219;47.410;9.730;2023-03-16T06:11:00;0.50;99.90
47482;DHT22;33219;47.410;9.730;2023-03-16T06:13:27;0.60;99.90
47482;DHT22;33219;47.410;9.730;2023-03-16T06:15:55;0.60;99.90
47482;DHT22;33219;47.410;9.730;2023-03-16T06:18:23;0.60;99.90
47482;DHT22;33219;47.410;9.730;2023-03-16T06:20:51;0.60;99.90
47482;DHT22;33219;47.410;9.730;2023-03-16T06:23:18;0.60;99.90
47482;DHT22;33219;47.410;9.730;2023-03-16T06:25:50;0.60;99.90
47482;DHT22;33219;47.410;9.730;2023-03-16T06:28:21;0.70;99.90
47482;DHT22;33219;47.410;9.730;2023-03-16T06:31:06;0.80;99.90
47482;DHT22;33219;47.410;9.730;2023-03-16T06:34:03;0.90;99.90
47482;DHT22;33219;47.410;9.730;2023-03-16T06:36:46;0.90;99.90
47482;DHT22;33219;47.410;9.730;2023-03-16T06:39:22;1.00;99.90
47482;DHT22;33219;47.410;9.730;2023-03-16T06:42:00;1.10;99.90
47482;DHT22;33219;47.410;9.730;2023-03-16T06:44:33;1.20;99.90
47482;DHT22;33219;47.410;9.730;2023-03-16T06:47:06;1.30;99.90
47482;DHT22;33219;47.410;9.730;2023-03-16T06:49:53;1.40;99.90
47482;DHT22;33219;47.410;9.730;2023-03-16T06:52:24;1.40;99.90
47482;DHT22;33219;47.410;9.730;2023-03-16T06:55:00;1.50;99.90
47482;DHT22;33219;47.410;9.730;2023-03-16T06:57:37;1.70;99.90
47482;DHT22;33219;47.410;9.730;2023-03-16T07:00:11;1.90;99.90
47482;DHT22;33219;47.410;9.730;2023-03-16T07:02:37;2.30;99.90
47482;DHT22;33219;47.410;9.730;2023-03-16T07:05:10;3.10;99.90
47482;DHT22;33219;47.410;9.730;2023-03-16T07:07:52;4.50;99.90
47482;DHT22;33219;47.410;9.730;2023-03-16T07:10:15;5.80;99.80
47482;DHT22;33219;47.410;9.730;2023-03-16T07:12:47;6.50;95.70
47482;DHT22;33219;47.410;9.730;2023-03-16T07:15:24;7.10;95.50
47482;DHT22;33219;47.410;9.730;2023-03-16T07:32:17;10.50;84.40
47482;DHT22;33219;47.410;9.730;2023-03-16T07:34:56;10.00;83.20
47482;DHT22;33219;47.410;9.730;2023-03-16T07:37:48;10.40;82.40
47482;DHT22;33219;47.410;9.730;2023-03-16T07:46:42;9.90;81.70
47482;DHT22;33219;47.410;9.730;2023-03-16T07:49:26;9.60;82.10
47482;DHT22;33219;47.410;9.730;2023-03-16T07:52:04;9.50;83.50
47482;DHT22;33219;47.410;9.730;2023-03-16T07:54:39;10.20;83.50
47482;DHT22;33219;47.410;9.730;2023-03-16T07:57:17;10.20;81.90
47482;DHT22;33219;47.410;9.730;2023-03-16T07:59:52;9.70;82.70
47482;DHT22;33219;47.410;9.730;2023-03-16T08:05:28;11.30;79.60
47482;DHT22;33219;47.410;9.730;2023-03-16T08:08:09;11.80;77.70
47482;DHT22;33219;47.410;9.730;2023-03-16T08:10:48;12.10;75.70
47482;DHT22;33219;47.410;9.730;2023-03-16T08:13:40;11.90;73.80
47482;DHT22;33219;47.410;9.730;2023-03-16T08:16:31;11.80;74.30
47482;DHT22;33219;47.410;9.730;2023-03-16T08:22:10;11.60;73.10
47482;DHT22;33219;47.410;9.730;2023-03-16T08:24:54;12.00;72.20
47482;DHT22;33219;47.410;9.730;2023-03-16T08:27:37;12.30;70.60
47482;DHT22;33219;47.410;9.730;2023-03-16T08:30:35;12.90;69.10
47482;DHT22;33219;47.410;9.730;2023-03-16T08:33:42;12.80;69.40
47482;DHT22;33219;47.410;9.730;2023-03-16T08:36:23;13.20;67.80
47482;DHT22;33219;47.410;9.730;2023-03-16T08:45:59;12.70;65.60
47482;DHT22;33219;47.410;9.730;2023-03-16T08:49:01;11.80;67.10
47482;DHT22;33219;47.410;9.730;2023-03-16T08:51:53;11.90;67.80
47482;DHT22;33219;47.410;9.730;2023-03-16T08:54:47;11.90;68.20
47482;DHT22;33219;47.410;9.730;2023-03-16T08:57:31;12.10;68.30
47482;DHT22;33219;47.410;9.730;2023-03-16T09:00:37;12.30;67.20
47482;DHT22;33219;47.410;9.730;2023-03-16T09:03:22;12.60;66.50
47482;DHT22;33219;47.410;9.730;2023-03-16T09:06:05;12.80;66.90
47482;DHT22;33219;47.410;9.730;2023-03-16T09:08:46;13.20;66.30
47482;DHT22;33219;47.410;9.730;2023-03-16T09:11:38;13.30;63.80
47482;DHT22;33219;47.410;9.730;2023-03-16T09:20:20;12.50;64.30
47482;DHT22;33219;47.410;9.730;2023-03-16T09:35:08;11.70;59.60
47482;DHT22;33219;47.410;9.730;2023-03-16T09:37:51;11.70;59.90
47482;DHT22;33219;47.410;9.730;2023-03-16T09:40:44;11.60;61.00
47482;DHT22;33219;47.410;9.730;2023-03-16T09:46:18;11.50;61.30
47482;DHT22;33219;47.410;9.730;2023-03-16T09:49:21;11.50;60.00
47482;DHT22;33219;47.410;9.730;2023-03-16T09:52:26;11.40;60.40
47482;DHT22;33219;47.410;9.730;2023-03-16T10:05:04;11.40;59.50
47482;DHT22;33219;47.410;9.730;2023-03-16T10:14:21;11.60;59.60
47482;DHT22;33219;47.410;9.730;2023-03-16T10:20:21;11.80;61.20
47482;DHT22;33219;47.410;9.730;2023-03-16T10:23:23;11.60;60.10
47482;DHT22;33219;47.410;9.730;2023-03-16T10:26:41;11.50;60.70
47482;DHT22;33219;47.410;9.730;2023-03-16T10:29:47;11.50;60.20
47482;DHT22;33219;47.410;9.730;2023-03-16T10:51:36;11.30;61.30
47482;DHT22;33219;47.410;9.730;2023-03-16T11:22:57;11.90;59.70
47482;DHT22;33219;47.410;9.730;2023-03-16T11:25:50;12.10;60.60
47482;DHT22;33219;47.410;9.730;2023-03-16T11:28:45;12.40;59.60
47482;DHT22;33219;47.410;9.730;2023-03-16T11:34:59;12.10;60.30
47482;DHT22;33219;47.410;9.730;2023-03-16T11:37:48;12.10;60.10
47482;DHT22;33219;47.410;9.730;2023-03-16T11:40:51;12.10;58.10
47482;DHT22;33219;47.410;9.730;2023-03-16T11:43:56;12.00;58.80
47482;DHT22;33219;47.410;9.730;2023-03-16T12:19:54;12.60;60.10
47482;DHT22;33219;47.410;9.730;2023-03-16T12:45:43;12.40;60.40
47482;DHT22;33219;47.410;9.730;2023-03-16T12:57:42;12.40;60.50
47482;DHT22;33219;47.410;9.730;2023-03-16T13:03:57;12.60;62.80
47482;DHT22;33219;47.410;9.730;2023-03-16T13:16:08;12.70;64.30
47482;DHT22;33219;47.410;9.730;2023-03-16T13:21:41;12.80;65.00
47482;DHT22;33219;47.410;9.730;2023-03-16T13:24:27;12.80;63.80
47482;DHT22;33219;47.410;9.730;2023-03-16T13:27:02;13.00;65.30
47482;DHT22;33219;47.410;9.730;2023-03-16T13:29:33;13.10;64.90
47482;DHT22;33219;47.410;9.730;2023-03-16T13:32:06;13.40;65.50
47482;DHT22;33219;47.410;9.730;2023-03-16T13:34:45;13.40;65.00
47482;DHT22;33219;47.410;9.730;2023-03-16T13:37:17;13.50;65.50
47482;DHT22;33219;47.410;9.730;2023-03-16T13:40:15;13.50;65.20
47482;DHT22;33219;47.410;9.730;2023-03-16T13:42:40;13.50;65.50
47482;DHT22;33219;47.410;9.730;2023-03-16T13:45:13;13.50;66.10
47482;DHT22;33219;47.410;9.730;2023-03-16T13:47:48;13.40;66.00
47482;DHT22;33219;47.410;9.730;2023-03-16T13:50:32;13.40;65.90
47482;DHT22;33219;47.410;9.730;2023-03-16T13:53:12;13.40;66.20
47482;DHT22;33219;47.410;9.730;2023-03-16T13:55:51;13.50;66.20
47482;DHT22;33219;47.410;9.730;2023-03-16T13:58:31;13.60;66.20
47482;DHT22;33219;47.410;9.730;2023-03-16T14:01:02;13.60;66.20
47482;DHT22;33219;47.410;9.730;2023-03-16T14:03:44;13.50;67.30
47482;DHT22;33219;47.410;9.730;2023-03-16T14:06:27;13.40;66.30
47482;DHT22;33219;47.410;9.730;2023-03-16T14:09:08;13.40;66.80
47482;DHT22;33219;47.410;9.730;2023-03-16T14:11:43;13.40;67.90
47482;DHT22;33219;47.410;9.730;2023-03-16T14:17:33;13.30;66.70
47482;DHT22;33219;47.410;9.730;2023-03-16T14:20:01;13.10;66.60
47482;DHT22;33219;47.410;9.730;2023-03-16T14:22:33;12.90;69.10
47482;DHT22;33219;47.410;9.730;2023-03-16T14:25:00;12.90;68.70
47482;DHT22;33219;47.410;9.730;2023-03-16T14:30:23;12.70;68.30
47482;DHT22;33219;47.410;9.730;2023-03-16T14:33:02;12.60;68.90
47482;DHT22;33219;47.410;9.730;2023-03-16T14:35:39;12.60;70.70
47482;DHT22;33219;47.410;9.730;2023-03-16T14:38:34;12.60;71.80
47482;DHT22;33219;47.410;9.730;2023-03-16T14:41:20;12.60;71.40
47482;DHT22;33219;47.410;9.730;2023-03-16T14:43:50;12.60;72.80
47482;DHT22;33219;47.410;9.730;2023-03-16T14:46:27;12.50;73.30
47482;DHT22;33219;47.410;9.730;2023-03-16T14:49:23;12.40;72.80
47482;DHT22;33219;47.410;9.730;2023-03-16T14:51:53;12.20;73.20
47482;DHT22;33219;47.410;9.730;2023-03-16T14:54:22;12.10;73.80
47482;DHT22;33219;47.410;9.730;2023-03-16T14:56:52;12.10;73.70
47482;DHT22;33219;47.410;9.730;2023-03-16T14:59:20;12.00;73.50
47482;DHT22;33219;47.410;9.730;2023-03-16T15:01:49;11.80;73.90
47482;DHT22;33219;47.410;9.730;2023-03-16T15:04:26;11.80;72.70
47482;DHT22;33219;47.410;9.730;2023-03-16T15:06:51;11.70;73.70
47482;DHT22;33219;47.410;9.730;2023-03-16T15:09:36;11.70;73.20
47482;DHT22;33219;47.410;9.730;2023-03-16T15:12:13;11.60;73.60
47482;DHT22;33219;47.410;9.730;2023-03-16T15:14:41;11.60;73.60
47482;DHT22;33219;47.410;9.730;2023-03-16T15:17:26;11.50;72.70
47482;DHT22;33219;47.410;9.730;2023-03-16T15:19:55;11.60;74.50
47482;DHT22;33219;47.410;9.730;2023-03-16T15:22:31;11.50;72.80
47482;DHT22;33219;47.410;9.730;2023-03-16T15:25:02;11.50;73.20
47482;DHT22;33219;47.410;9.730;2023-03-16T15:27:34;11.40;73.80
47482;DHT22;33219;47.410;9.730;2023-03-16T15:30:02;11.40;73.10
47482;DHT22;33219;47.410;9.730;2023-03-16T15:32:30;11.30;71.20
47482;DHT22;33219;47.410;9.730;2023-03-16T15:34:57;11.20;70.10
47482;DHT22;33219;47.410;9.730;2023-03-16T15:37:25;11.10;70.20
47482;DHT22;33219;47.410;9.730;2023-03-16T15:39:54;11.10;70.30
47482;DHT22;33219;47.410;9.730;2023-03-16T15:42:22;11.10;70.90
47482;DHT22;33219;47.410;9.730;2023-03-16T15:44:51;11.00;70.30
47482;DHT22;33219;47.410;9.730;2023-03-16T15:47:19;11.00;71.60
47482;DHT22;33219;47.410;9.730;2023-03-16T15:49:47;11.00;72.00
47482;DHT22;33219;47.410;9.730;2023-03-16T15:52:25;10.90;71.60
47482;DHT22;33219;47.410;9.730;2023-03-16T15:54:51;10.90;71.60
47482;DHT22;33219;47.410;9.730;2023-03-16T15:57:20;10.80;72.10
47482;DHT22;33219;47.410;9.730;2023-03-16T15:59:48;10.80;72.10
47482;DHT22;33219;47.410;9.730;2023-03-16T16:02:29;10.80;71.60
47482;DHT22;33219;47.410;9.730;2023-03-16T16:04:58;10.70;72.00
47482;DHT22;33219;47.410;9.730;2023-03-16T16:07:26;10.70;71.90
47482;DHT22;33219;47.410;9.730;2023-03-16T16:09:53;10.70;72.50
47482;DHT22;33219;47.410;9.730;2023-03-16T16:12:21;10.60;71.90
47482;DHT22;33219;47.410;9.730;2023-03-16T16:14:51;10.60;72.30
47482;DHT22;33219;47.410;9.730;2023-03-16T16:17:19;10.50;71.10
47482;DHT22;33219;47.410;9.730;2023-03-16T16:19:48;10.50;70.40
47482;DHT22;33219;47.410;9.730;2023-03-16T16:22:16;10.50;70.70
47482;DHT22;33219;47.410;9.730;2023-03-16T16:24:45;10.40;71.70
47482;DHT22;33219;47.410;9.730;2023-03-16T16:27:12;10.50;70.60
47482;DHT22;33219;47.410;9.730;2023-03-16T16:29:40;10.50;70.20
47482;DHT22;33219;47.410;9.730;2023-03-16T16:32:21;10.40;70.80
47482;DHT22;33219;47.410;9.730;2023-03-16T16:34:49;10.40;71.50
47482;DHT22;33219;47.410;9.730;2023-03-16T16:37:19;10.30;72.10
47482;DHT22;33219;47.410;9.730;2023-03-16T16:39:46;10.30;70.90
47482;DHT22;33219;47.410;9.730;2023-03-16T16:42:15;10.20;70.90
47482;DHT22;33219;47.410;9.730;2023-03-16T16:44:45;10.20;71.30
47482;DHT22;33219;47.410;9.730;2023-03-16T16:47:19;10.10;71.10
47482;DHT22;33219;47.410;9.730;2023-03-16T16:49:48;10.00;70.90
47482;DHT22;33219;47.410;9.730;2023-03-16T16:52:17;9.90;71.10
47482;DHT22;33219;47.410;9.730;2023-03-16T16:54:45;9.80;71.60
47482;DHT22;33219;47.410;9.730;2023-03-16T16:57:17;9.70;72.70
47482;DHT22;33219;47.410;9.730;2023-03-16T16:59:47;9.60;72.40
47482;DHT22;33219;47.410;9.730;2023-03-16T17:02:29;9.50;73.10
47482;DHT22;33219;47.410;9.730;2023-03-16T17:04:57;9.40;73.70
47482;DHT22;33219;47.410;9.730;2023-03-16T17:07:25;9.30;74.20
47482;DHT22;33219;47.410;9.730;2023-03-16T17:09:53;9.20;74.90
47482;DHT22;33219;47.410;9.730;2023-03-16T17:12:22;9.10;75.80
47482;DHT22;33219;47.410;9.730;2023-03-16T17:14:50;9.00;76.00
47482;DHT22;33219;47.410;9.730;2023-03-16T17:17:18;8.90;76.40
47482;DHT22;33219;47.410;9.730;2023-03-16T17:19:47;8.80;77.20
47482;DHT22;33219;47.410;9.730;2023-03-16T17:22:23;8.70;77.90
47482;DHT22;33219;47.410;9.730;2023-03-16T17:24:51;8.60;79.40
47482;DHT22;33219;47.410;9.730;2023-03-16T17:27:25;8.50;82.10
47482;DHT22;33219;47.410;9.730;2023-03-16T17:29:53;8.40;82.90
47482;DHT22;33219;47.410;9.730;2023-03-16T17:32:22;8.40;87.10
47482;DHT22;33219;47.410;9.730;2023-03-16T17:34:50;8.30;90.00
47482;DHT22;33219;47.410;9.730;2023-03-16T17:37:21;8.30;91.60
47482;DHT22;33219;47.410;9.730;2023-03-16T17:39:49;8.20;92.70
47482;DHT22;33219;47.410;9.730;2023-03-16T17:42:19;8.30;93.50
47482;DHT22;33219;47.410;9.730;2023-03-16T17:44:50;8.30;95.00
47482;DHT22;33219;47.410;9.730;2023-03-16T17:47:26;8.30;95.70
47482;DHT22;33219;47.410;9.730;2023-03-16T17:49:55;8.30;96.20
47482;DHT22;33219;47.410;9.730;2023-03-16T17:52:25;8.20;96.80
47482;DHT22;33219;47.410;9.730;2023-03-16T17:54:54;8.20;97.20
47482;DHT22;33219;47.410;9.730;2023-03-16T17:57:28;8.10;97.50
47482;DHT22;33219;47.410;9.730;2023-03-16T17:59:57;8.10;98.00
47482;DHT22;33219;47.410;9.730;2023-03-16T18:02:49;8.00;97.70
47482;DHT22;33219;47.410;9.730;2023-03-16T18:05:26;8.00;98.20
47482;DHT22;33219;47.410;9.730;2023-03-16T18:08:15;7.90;98.30
47482;DHT22;33219;47.410;9.730;2023-03-16T18:10:47;7.90;98.40
47482;DHT22;33219;47.410;9.730;2023-03-16T18:13:23;7.90;98.50
47482;DHT22;33219;47.410;9.730;2023-03-16T18:15:53;7.90;98.20
47482;DHT22;33219;47.410;9.730;2023-03-16T18:18:27;7.80;97.90
47482;DHT22;33219;47.410;9.730;2023-03-16T18:20:53;7.80;98.20
47482;DHT22;33219;47.410;9.730;2023-03-16T18:23:25;7.80;98.00
47482;DHT22;33219;47.410;9.730;2023-03-16T18:25:54;7.70;97.90
47482;DHT22;33219;47.410;9.730;2023-03-16T18:28:24;7.60;97.90
47482;DHT22;33219;47.410;9.730;2023-03-16T18:30:55;7.60;97.70
47482;DHT22;33219;47.410;9.730;2023-03-16T18:36:12;7.50;97.50
47482;DHT22;33219;47.410;9.730;2023-03-16T18:38:38;7.50;97.50
47482;DHT22;33219;47.410;9.730;2023-03-16T18:41:15;7.40;97.40
47482;DHT22;33219;47.410;9.730;2023-03-16T18:43:43;7.50;97.50
47482;DHT22;33219;47.410;9.730;2023-03-16T18:46:32;7.40;97.50
47482;DHT22;33219;47.410;9.730;2023-03-16T18:49:03;7.40;97.10
47482;DHT22;33219;47.410;9.730;2023-03-16T18:51:34;7.40;97.30
47482;DHT22;33219;47.410;9.730;2023-03-16T18:54:15;7.30;97.40
47482;DHT22;33219;47.410;9.730;2023-03-16T18:56:37;7.30;97.40
47482;DHT22;33219;47.410;9.730;2023-03-16T18:59:06;7.30;97.20
47482;DHT22;33219;47.410;9.730;2023-03-16T19:01:35;7.30;97.10
47482;DHT22;33219;47.410;9.730;2023-03-16T19:04:16;7.30;97.00
47482;DHT22;33219;47.410;9.730;2023-03-16T19:06:37;7.30;97.10
47482;DHT22;33219;47.410;9.730;2023-03-16T19:09:10;7.30;97.10
47482;DHT22;33219;47.410;9.730;2023-03-16T19:11:38;7.30;97.10
47482;DHT22;33219;47.410;9.730;2023-03-16T19:14:22;7.20;97.00
47482;DHT22;33219;47.410;9.730;2023-03-16T19:16:50;7.20;96.80
47482;DHT22;33219;47.410;9.730;2023-03-16T19:19:18;7.20;96.70
47482;DHT22;33219;47.410;9.730;2023-03-16T19:21:56;7.10;96.40
47482;DHT22;33219;47.410;9.730;2023-03-16T19:24:29;7.10;96.70
47482;DHT22;33219;47.410;9.730;2023-03-16T19:27:00;7.00;96.20
47482;DHT22;33219;47.410;9.730;2023-03-16T19:29:30;7.00;96.10
47482;DHT22;33219;47.410;9.730;2023-03-16T19:32:00;7.00;96.50
47482;DHT22;33219;47.410;9.730;2023-03-16T19:34:29;6.90;96.70
47482;DHT22;33219;47.410;9.730;2023-03-16T19:36:57;6.90;96.60
47482;DHT22;33219;47.410;9.730;2023-03-16T19:39:26;6.80;96.80
47482;DHT22;33219;47.410;9.730;2023-03-16T19:41:56;6.70;96.70
47482;DHT22;33219;47.410;9.730;2023-03-16T19:44:27;6.70;96.90
47482;DHT22;33219;47.410;9.730;2023-03-16T19:46:57;6.70;96.80
47482;DHT22;33219;47.410;9.730;2023-03-16T19:49:27;6.60;97.10
47482;DHT22;33219;47.410;9.730;2023-03-16T19:51:55;6.60;96.80
47482;DHT22;33219;47.410;9.730;2023-03-16T19:54:29;6.60;96.80
47482;DHT22;33219;47.410;9.730;2023-03-16T19:57:03;6.60;96.90
47482;DHT22;33219;47.410;9.730;2023-03-16T19:59:32;6.60;97.20
47482;DHT22;33219;47.410;9.730;2023-03-16T20:02:01;6.50;97.10
47482;DHT22;33219;47.410;9.730;2023-03-16T20:04:31;6.40;96.80
47482;DHT22;33219;47.410;9.730;2023-03-16T20:06:59;6.50;96.20